sensor_id;sensor_type;location;lat;lon;timestamp;P1;durP1;ratioP1;P2;durP2;ratioP2
73919;SDS011;62266;53.348;-1.496;2022-09-16T00:00:15;2.83;;;0.73;;
73919;SDS011;62266;53.348;-1.496;2022-09-16T00:02:41;3.17;;;1.00;;
73919;SDS011;62266;53.348;-1.496;2022-09-16T00:05:07;1.25;;;0.80;;
73919;SDS011;62266;53.348;-1.496;2022-09-16T00:07:33;1.50;;;0.80;;
73919;SDS011;62266;53.348;-1.496;2022-09-16T00:09:59;1.60;;;0.90;;
73919;SDS011;62266;53.348;-1.496;2022-09-16T00:12:25;1.40;;;1.00;;
73919;SDS011;62266;53.348;-1.496;2022-09-16T00:14:51;1.70;;;0.90;;
73919;SDS011;62266;53.348;-1.496;2022-09-16T00:17:18;1.80;;;1.03;;
73919;SDS011;62266;53.348;-1.496;2022-09-16T00:19:44;1.55;;;0.93;;
73919;SDS011;62266;53.348;-1.496;2022-09-16T00:22:09;1.85;;;0.70;;
73919;SDS011;62266;53.348;-1.496;2022-09-16T00:24:37;4.87;;;0.80;;
73919;SDS011;62266;53.348;-1.496;2022-09-16T00:27:03;1.45;;;1.05;;
73919;SDS011;62266;53.348;-1.496;2022-09-16T00:29:28;2.50;;;0.90;;
73919;SDS011;62266;53.348;-1.496;2022-09-16T00:31:54;3.17;;;0.90;;
73919;SDS011;62266;53.348;-1.496;2022-09-16T00:34:19;1.80;;;1.05;;
73919;SDS011;62266;53.348;-1.496;2022-09-16T00:36:45;2.20;;;1.10;;
73919;SDS011;62266;53.348;-1.496;2022-09-16T00:39:10;3.50;;;1.10;;
73919;SDS011;62266;53.348;-1.496;2022-09-16T00:41:36;2.97;;;1.00;;
73919;SDS011;62266;53.348;-1.496;2022-09-16T00:44:06;1.95;;;1.23;;
73919;SDS011;62266;53.348;-1.496;2022-09-16T00:46:52;1.50;;;1.00;;
73919;SDS011;62266;53.348;-1.496;2022-09-16T00:49:22;1.95;;;0.73;;
73919;SDS011;62266;53.348;-1.496;2022-09-16T00:51:50;2.42;;;0.90;;
73919;SDS011;62266;53.348;-1.496;2022-09-16T00:54:18;1.55;;;1.13;;
73919;SDS011;62266;53.348;-1.496;2022-09-16T00:56:45;3.37;;;1.30;;
73919;SDS011;62266;53.348;-1.496;2022-09-16T00:59:14;4.68;;;1.20;;
73919;SDS011;62266;53.348;-1.496;2022-09-16T01:01:44;2.70;;;1.00;;
73919;SDS011;62266;53.348;-1.496;2022-09-16T01:04:17;2.30;;;1.20;;
73919;SDS011;62266;53.348;-1.496;2022-09-16T01:06:45;2.85;;;1.10;;
73919;SDS011;62266;53.348;-1.496;2022-09-16T01:09:11;1.57;;;0.83;;
73919;SDS011;62266;53.348;-1.496;2022-09-16T01:11:36;3.15;;;1.10;;
73919;SDS011;62266;53.348;-1.496;2022-09-16T01:14:02;1.50;;;1.10;;
73919;SDS011;62266;53.348;-1.496;2022-09-16T01:16:54;2.20;;;0.90;;
73919;SDS011;62266;53.348;-1.496;2022-09-16T01:19:35;1.88;;;1.27;;
73919;SDS011;62266;53.348;-1.496;2022-09-16T01:25:31;2.65;;;1.17;;
73919;SDS011;62266;53.348;-1.496;2022-09-16T01:28:21;2.60;;;1.27;;
73919;SDS011;62266;53.348;-1.496;2022-09-16T01:31:17;1.20;;;1.00;;
73919;SDS011;62266;53.348;-1.496;2022-09-16T01:34:03;3.45;;;1.23;;
73919;SDS011;62266;53.348;-1.496;2022-09-16T01:36:40;1.83;;;0.90;;
73919;SDS011;62266;53.348;-1.496;2022-09-16T01:39:12;2.50;;;1.20;;
73919;SDS011;62266;53.348;-1.496;2022-09-16T01:47:09;2.70;;;1.50;;
73919;SDS011;62266;53.348;-1.496;2022-09-16T01:49:45;2.22;;;1.10;;
73919;SDS011;62266;53.348;-1.496;2022-09-16T01:55:33;4.47;;;0.90;;
73919;SDS011;62266;53.348;-1.496;2022-09-16T01:58:38;1.42;;;1.00;;
73919;SDS011;62266;53.348;-1.496;2022-09-16T02:01:08;1.50;;;0.80;;
73919;SDS011;62266;53.348;-1.496;2022-09-16T02:03:37;2.35;;;1.17;;
73919;SDS011;62266;53.348;-1.496;2022-09-16T02:06:07;1.67;;;1.15;;
73919;SDS011;62266;53.348;-1.496;2022-09-16T02:08:53;2.47;;;1.20;;
73919;SDS011;62266;53.348;-1.496;2022-09-16T02:11:22;2.35;;;0.95;;
73919;SDS011;62266;53.348;-1.496;2022-09-16T02:13:49;4.13;;;1.23;;
73919;SDS011;62266;53.348;-1.496;2022-09-16T02:18:53;1.75;;;0.90;;
73919;SDS011;62266;53.348;-1.496;2022-09-16T02:21:21;1.73;;;0.80;;
73919;SDS011;62266;53.348;-1.496;2022-09-16T02:23:53;1.08;;;0.90;;
73919;SDS011;62266;53.348;-1.496;2022-09-16T02:26:21;2.17;;;0.88;;
73919;SDS011;62266;53.348;-1.496;2022-09-16T02:28:52;2.05;;;1.00;;
73919;SDS011;62266;53.348;-1.496;2022-09-16T02:31:20;2.28;;;1.20;;
73919;SDS011;62266;53.348;-1.496;2022-09-16T02:33:53;2.87;;;0.90;;
73919;SDS011;62266;53.348;-1.496;2022-09-16T02:36:22;2.78;;;0.80;;
73919;SDS011;62266;53.348;-1.496;2022-09-16T02:38:58;1.60;;;0.93;;
73919;SDS011;62266;53.348;-1.496;2022-09-16T02:41:28;1.92;;;0.90;;
73919;SDS011;62266;53.348;-1.496;2022-09-16T02:43:54;3.45;;;1.10;;
73919;SDS011;62266;53.348;-1.496;2022-09-16T02:51:43;4.90;;;1.10;;
73919;SDS011;62266;53.348;-1.496;2022-09-16T02:56:49;2.27;;;1.10;;
73919;SDS011;62266;53.348;-1.496;2022-09-16T02:59:17;2.33;;;0.95;;
73919;SDS011;62266;53.348;-1.496;2022-09-16T03:01:44;1.63;;;0.95;;
73919;SDS011;62266;53.348;-1.496;2022-09-16T03:04:12;1.67;;;1.10;;
73919;SDS011;62266;53.348;-1.496;2022-09-16T03:06:38;2.50;;;0.90;;
73919;SDS011;62266;53.348;-1.496;2022-09-16T03:09:05;1.73;;;0.70;;
73919;SDS011;62266;53.348;-1.496;2022-09-16T03:20:22;5.38;;;2.58;;
73919;SDS011;62266;53.348;-1.496;2022-09-16T03:23:16;3.35;;;2.28;;
73919;SDS011;62266;53.348;-1.496;2022-09-16T03:25:51;6.78;;;2.30;;
73919;SDS011;62266;53.348;-1.496;2022-09-16T03:28:24;5.32;;;3.08;;
73919;SDS011;62266;53.348;-1.496;2022-09-16T03:33:27;4.25;;;2.80;;
73919;SDS011;62266;53.348;-1.496;2022-09-16T03:35:59;3.58;;;2.55;;
73919;SDS011;62266;53.348;-1.496;2022-09-16T03:38:26;3.67;;;2.40;;
73919;SDS011;62266;53.348;-1.496;2022-09-16T03:40:52;2.38;;;1.38;;
73919;SDS011;62266;53.348;-1.496;2022-09-16T03:43:18;1.30;;;1.10;;
73919;SDS011;62266;53.348;-1.496;2022-09-16T03:45:43;2.35;;;1.17;;
73919;SDS011;62266;53.348;-1.496;2022-09-16T03:48:10;4.23;;;1.10;;
73919;SDS011;62266;53.348;-1.496;2022-09-16T03:50:36;4.18;;;1.73;;
73919;SDS011;62266;53.348;-1.496;2022-09-16T03:53:02;1.83;;;0.97;;
73919;SDS011;62266;53.348;-1.496;2022-09-16T03:55:28;1.67;;;1.17;;
73919;SDS011;62266;53.348;-1.496;2022-09-16T03:57:53;1.45;;;0.90;;
73919;SDS011;62266;53.348;-1.496;2022-09-16T04:00:19;2.00;;;1.00;;
73919;SDS011;62266;53.348;-1.496;2022-09-16T04:02:45;3.78;;;1.23;;
73919;SDS011;62266;53.348;-1.496;2022-09-16T04:05:11;1.02;;;0.82;;
73919;SDS011;62266;53.348;-1.496;2022-09-16T04:07:37;1.50;;;0.90;;
73919;SDS011;62266;53.348;-1.496;2022-09-16T04:10:03;3.15;;;0.98;;
73919;SDS011;62266;53.348;-1.496;2022-09-16T04:12:29;1.70;;;0.87;;
73919;SDS011;62266;53.348;-1.496;2022-09-16T04:14:55;1.70;;;0.80;;
73919;SDS011;62266;53.348;-1.496;2022-09-16T04:17:20;1.17;;;0.80;;
73919;SDS011;62266;53.348;-1.496;2022-09-16T04:19:47;0.88;;;0.60;;
73919;SDS011;62266;53.348;-1.496;2022-09-16T04:22:13;1.57;;;0.70;;
73919;SDS011;62266;53.348;-1.496;2022-09-16T04:24:38;2.08;;;0.93;;
73919;SDS011;62266;53.348;-1.496;2022-09-16T04:27:04;1.70;;;0.70;;
73919;SDS011;62266;53.348;-1.496;2022-09-16T04:29:30;1.42;;;0.90;;
73919;SDS011;62266;53.348;-1.496;2022-09-16T04:31:56;2.03;;;0.73;;
73919;SDS011;62266;53.348;-1.496;2022-09-16T04:34:21;0.90;;;0.70;;
73919;SDS011;62266;53.348;-1.496;2022-09-16T04:36:47;2.70;;;1.07;;
73919;SDS011;62266;53.348;-1.496;2022-09-16T04:39:13;1.50;;;0.70;;
73919;SDS011;62266;53.348;-1.496;2022-09-16T04:41:38;1.40;;;0.90;;
73919;SDS011;62266;53.348;-1.496;2022-09-16T04:44:04;2.60;;;0.80;;
73919;SDS011;62266;53.348;-1.496;2022-09-16T04:46:30;8.15;;;1.55;;
73919;SDS011;62266;53.348;-1.496;2022-09-16T04:48:56;2.08;;;0.90;;
73919;SDS011;62266;53.348;-1.496;2022-09-16T04:51:24;3.83;;;1.20;;
73919;SDS011;62266;53.348;-1.496;2022-09-16T04:53:52;3.13;;;1.30;;
73919;SDS011;62266;53.348;-1.496;2022-09-16T04:56:19;4.38;;;1.70;;
73919;SDS011;62266;53.348;-1.496;2022-09-16T04:58:50;2.75;;;0.98;;
73919;SDS011;62266;53.348;-1.496;2022-09-16T05:01:19;2.22;;;1.25;;
73919;SDS011;62266;53.348;-1.496;2022-09-16T05:03:48;2.60;;;1.20;;
73919;SDS011;62266;53.348;-1.496;2022-09-16T05:06:19;2.88;;;1.38;;
73919;SDS011;62266;53.348;-1.496;2022-09-16T05:08:51;1.77;;;1.20;;
73919;SDS011;62266;53.348;-1.496;2022-09-16T05:11:19;1.20;;;1.10;;
73919;SDS011;62266;53.348;-1.496;2022-09-16T05:13:46;4.22;;;1.27;;
73919;SDS011;62266;53.348;-1.496;2022-09-16T05:16:12;1.93;;;1.03;;
73919;SDS011;62266;53.348;-1.496;2022-09-16T05:18:41;2.35;;;0.80;;
73919;SDS011;62266;53.348;-1.496;2022-09-16T05:21:09;1.60;;;1.48;;
73919;SDS011;62266;53.348;-1.496;2022-09-16T05:23:37;1.93;;;1.00;;
73919;SDS011;62266;53.348;-1.496;2022-09-16T05:26:12;3.35;;;1.08;;
73919;SDS011;62266;53.348;-1.496;2022-09-16T05:28:39;1.40;;;1.00;;
73919;SDS011;62266;53.348;-1.496;2022-09-16T05:31:18;4.00;;;0.87;;
73919;SDS011;62266;53.348;-1.496;2022-09-16T05:33:46;2.15;;;0.80;;
73919;SDS011;62266;53.348;-1.496;2022-09-16T05:36:18;1.02;;;0.60;;
73919;SDS011;62266;53.348;-1.496;2022-09-16T05:38:43;2.93;;;0.70;;
73919;SDS011;62266;53.348;-1.496;2022-09-16T05:41:09;0.82;;;0.52;;
73919;SDS011;62266;53.348;-1.496;2022-09-16T05:43:35;1.87;;;0.57;;
73919;SDS011;62266;53.348;-1.496;2022-09-16T05:46:01;2.70;;;0.50;;
73919;SDS011;62266;53.348;-1.496;2022-09-16T05:48:27;1.63;;;0.50;;
73919;SDS011;62266;53.348;-1.496;2022-09-16T05:50:57;1.75;;;0.35;;
73919;SDS011;62266;53.348;-1.496;2022-09-16T05:53:24;1.53;;;0.30;;
73919;SDS011;62266;53.348;-1.496;2022-09-16T05:55:58;0.70;;;0.20;;
73919;SDS011;62266;53.348;-1.496;2022-09-16T05:58:25;1.20;;;0.50;;
73919;SDS011;62266;53.348;-1.496;2022-09-16T06:00:59;0.77;;;0.40;;
73919;SDS011;62266;53.348;-1.496;2022-09-16T06:03:30;1.30;;;0.30;;
73919;SDS011;62266;53.348;-1.496;2022-09-16T06:06:00;0.50;;;0.37;;
73919;SDS011;62266;53.348;-1.496;2022-09-16T06:08:28;2.08;;;0.35;;
73919;SDS011;62266;53.348;-1.496;2022-09-16T06:10:54;1.00;;;0.30;;
73919;SDS011;62266;53.348;-1.496;2022-09-16T06:13:19;0.70;;;0.30;;
73919;SDS011;62266;53.348;-1.496;2022-09-16T06:15:49;2.00;;;0.77;;
73919;SDS011;62266;53.348;-1.496;2022-09-16T06:18:16;0.68;;;0.43;;
73919;SDS011;62266;53.348;-1.496;2022-09-16T06:20:43;0.57;;;0.30;;
73919;SDS011;62266;53.348;-1.496;2022-09-16T06:23:09;0.45;;;0.25;;
73919;SDS011;62266;53.348;-1.496;2022-09-16T06:25:34;0.57;;;0.30;;
73919;SDS011;62266;53.348;-1.496;2022-09-16T06:28:00;0.50;;;0.30;;
73919;SDS011;62266;53.348;-1.496;2022-09-16T06:30:26;1.58;;;0.40;;
73919;SDS011;62266;53.348;-1.496;2022-09-16T06:32:52;1.10;;;0.30;;
73919;SDS011;62266;53.348;-1.496;2022-09-16T06:35:17;0.97;;;0.30;;
73919;SDS011;62266;53.348;-1.496;2022-09-16T06:37:43;1.25;;;0.40;;
73919;SDS011;62266;53.348;-1.496;2022-09-16T06:40:10;0.93;;;0.20;;
73919;SDS011;62266;53.348;-1.496;2022-09-16T06:42:35;1.55;;;0.25;;
73919;SDS011;62266;53.348;-1.496;2022-09-16T06:45:01;0.90;;;0.25;;
73919;SDS011;62266;53.348;-1.496;2022-09-16T06:47:29;1.17;;;0.30;;
73919;SDS011;62266;53.348;-1.496;2022-09-16T06:49:58;0.77;;;0.30;;
73919;SDS011;62266;53.348;-1.496;2022-09-16T06:52:24;1.33;;;0.30;;
73919;SDS011;62266;53.348;-1.496;2022-09-16T06:54:50;0.75;;;0.30;;
73919;SDS011;62266;53.348;-1.496;2022-09-16T06:57:15;0.57;;;0.40;;
73919;SDS011;62266;53.348;-1.496;2022-09-16T06:59:44;0.40;;;0.15;;
73919;SDS011;62266;53.348;-1.496;2022-09-16T07:02:10;1.23;;;0.40;;
73919;SDS011;62266;53.348;-1.496;2022-09-16T07:04:36;0.97;;;0.20;;
73919;SDS011;62266;53.348;-1.496;2022-09-16T07:07:02;1.42;;;0.20;;
73919;SDS011;62266;53.348;-1.496;2022-09-16T07:09:28;0.82;;;0.10;;
73919;SDS011;62266;53.348;-1.496;2022-09-16T07:11:54;0.77;;;0.20;;
73919;SDS011;62266;53.348;-1.496;2022-09-16T07:14:20;0.30;;;0.10;;
73919;SDS011;62266;53.348;-1.496;2022-09-16T07:16:46;1.40;;;0.20;;
73919;SDS011;62266;53.348;-1.496;2022-09-16T07:19:12;0.25;;;0.15;;
73919;SDS011;62266;53.348;-1.496;2022-09-16T07:21:38;0.50;;;0.20;;
73919;SDS011;62266;53.348;-1.496;2022-09-16T07:24:05;1.35;;;0.20;;
73919;SDS011;62266;53.348;-1.496;2022-09-16T07:26:31;1.23;;;0.33;;
73919;SDS011;62266;53.348;-1.496;2022-09-16T07:28:59;0.25;;;0.20;;
73919;SDS011;62266;53.348;-1.496;2022-09-16T07:31:27;1.17;;;0.30;;
73919;SDS011;62266;53.348;-1.496;2022-09-16T07:33:55;0.55;;;0.20;;
73919;SDS011;62266;53.348;-1.496;2022-09-16T07:36:22;0.50;;;0.30;;
73919;SDS011;62266;53.348;-1.496;2022-09-16T07:38:49;0.60;;;0.20;;
73919;SDS011;62266;53.348;-1.496;2022-09-16T07:41:19;1.40;;;0.20;;
73919;SDS011;62266;53.348;-1.496;2022-09-16T07:43:47;0.20;;;0.10;;
73919;SDS011;62266;53.348;-1.496;2022-09-16T07:46:14;0.38;;;0.20;;
73919;SDS011;62266;53.348;-1.496;2022-09-16T07:48:42;0.33;;;0.17;;
73919;SDS011;62266;53.348;-1.496;2022-09-16T07:51:09;0.20;;;0.00;;
73919;SDS011;62266;53.348;-1.496;2022-09-16T07:53:36;0.95;;;0.20;;
73919;SDS011;62266;53.348;-1.496;2022-09-16T07:56:03;0.60;;;0.20;;
73919;SDS011;62266;53.348;-1.496;2022-09-16T07:58:31;1.30;;;0.50;;
73919;SDS011;62266;53.348;-1.496;2022-09-16T08:00:57;1.03;;;0.47;;
73919;SDS011;62266;53.348;-1.496;2022-09-16T08:03:22;1.63;;;0.38;;
73919;SDS011;62266;53.348;-1.496;2022-09-16T08:05:48;0.63;;;0.20;;
73919;SDS011;62266;53.348;-1.496;2022-09-16T08:08:13;0.52;;;0.40;;
73919;SDS011;62266;53.348;-1.496;2022-09-16T08:10:39;1.60;;;0.20;;
73919;SDS011;62266;53.348;-1.496;2022-09-16T08:13:05;0.88;;;0.10;;
73919;SDS011;62266;53.348;-1.496;2022-09-16T08:15:32;0.30;;;0.20;;
73919;SDS011;62266;53.348;-1.496;2022-09-16T08:17:57;0.33;;;0.20;;
73919;SDS011;62266;53.348;-1.496;2022-09-16T08:20:23;0.70;;;0.13;;
73919;SDS011;62266;53.348;-1.496;2022-09-16T08:22:50;0.80;;;0.20;;
73919;SDS011;62266;53.348;-1.496;2022-09-16T08:25:16;0.70;;;0.20;;
73919;SDS011;62266;53.348;-1.496;2022-09-16T08:27:41;1.63;;;0.17;;
73919;SDS011;62266;53.348;-1.496;2022-09-16T08:30:07;0.40;;;0.17;;
73919;SDS011;62266;53.348;-1.496;2022-09-16T08:32:33;0.80;;;0.10;;
73919;SDS011;62266;53.348;-1.496;2022-09-16T08:34:58;0.83;;;0.30;;
73919;SDS011;62266;53.348;-1.496;2022-09-16T08:37:24;1.55;;;0.68;;
73919;SDS011;62266;53.348;-1.496;2022-09-16T08:39:49;1.53;;;0.20;;
73919;SDS011;62266;53.348;-1.496;2022-09-16T08:45:02;0.88;;;0.20;;
73919;SDS011;62266;53.348;-1.496;2022-09-16T08:47:39;0.27;;;0.10;;
73919;SDS011;62266;53.348;-1.496;2022-09-16T08:50:21;0.60;;;0.20;;
73919;SDS011;62266;53.348;-1.496;2022-09-16T08:52:50;1.27;;;0.20;;
73919;SDS011;62266;53.348;-1.496;2022-09-16T08:55:19;3.05;;;0.30;;
73919;SDS011;62266;53.348;-1.496;2022-09-16T08:57:55;0.75;;;0.25;;
73919;SDS011;62266;53.348;-1.496;2022-09-16T09:00:23;1.43;;;0.03;;
73919;SDS011;62266;53.348;-1.496;2022-09-16T09:02:54;1.65;;;0.28;;
73919;SDS011;62266;53.348;-1.496;2022-09-16T09:05:26;1.83;;;0.20;;
73919;SDS011;62266;53.348;-1.496;2022-09-16T09:24:57;0.50;;;0.20;;
73919;SDS011;62266;53.348;-1.496;2022-09-16T09:27:35;1.38;;;0.20;;
73919;SDS011;62266;53.348;-1.496;2022-09-16T09:30:18;0.82;;;0.30;;
73919;SDS011;62266;53.348;-1.496;2022-09-16T09:32:56;1.27;;;0.10;;
73919;SDS011;62266;53.348;-1.496;2022-09-16T09:38:49;1.30;;;0.10;;
73919;SDS011;62266;53.348;-1.496;2022-09-16T09:41:29;0.70;;;0.17;;
73919;SDS011;62266;53.348;-1.496;2022-09-16T09:46:52;0.73;;;0.30;;
73919;SDS011;62266;53.348;-1.496;2022-09-16T09:49:26;1.63;;;0.20;;
73919;SDS011;62266;53.348;-1.496;2022-09-16T09:51:56;0.37;;;0.10;;
73919;SDS011;62266;53.348;-1.496;2022-09-16T09:56:52;1.15;;;0.25;;
73919;SDS011;62266;53.348;-1.496;2022-09-16T10:01:57;2.08;;;0.20;;
73919;SDS011;62266;53.348;-1.496;2022-09-16T10:04:23;2.05;;;0.30;;
73919;SDS011;62266;53.348;-1.496;2022-09-16T10:06:49;2.15;;;0.50;;
73919;SDS011;62266;53.348;-1.496;2022-09-16T10:09:16;1.40;;;0.60;;
73919;SDS011;62266;53.348;-1.496;2022-09-16T10:11:49;0.75;;;0.10;;
73919;SDS011;62266;53.348;-1.496;2022-09-16T10:14:22;0.80;;;0.17;;
73919;SDS011;62266;53.348;-1.496;2022-09-16T10:16:56;2.15;;;0.25;;
73919;SDS011;62266;53.348;-1.496;2022-09-16T10:19:25;1.27;;;0.20;;
73919;SDS011;62266;53.348;-1.496;2022-09-16T10:21:53;1.47;;;0.20;;
73919;SDS011;62266;53.348;-1.496;2022-09-16T10:24:32;0.65;;;0.20;;
73919;SDS011;62266;53.348;-1.496;2022-09-16T10:26:59;0.55;;;0.20;;
73919;SDS011;62266;53.348;-1.496;2022-09-16T10:29:25;1.60;;;0.17;;
73919;SDS011;62266;53.348;-1.496;2022-09-16T10:31:51;1.27;;;0.37;;
73919;SDS011;62266;53.348;-1.496;2022-09-16T10:34:36;1.58;;;0.52;;
73919;SDS011;62266;53.348;-1.496;2022-09-16T10:39:39;2.45;;;0.20;;
73919;SDS011;62266;53.348;-1.496;2022-09-16T10:45:13;0.47;;;0.15;;
73919;SDS011;62266;53.348;-1.496;2022-09-16T10:47:54;1.38;;;0.30;;
73919;SDS011;62266;53.348;-1.496;2022-09-16T10:50:24;0.70;;;0.22;;
73919;SDS011;62266;53.348;-1.496;2022-09-16T10:52:51;1.10;;;0.10;;
73919;SDS011;62266;53.348;-1.496;2022-09-16T10:55:28;1.63;;;0.07;;
73919;SDS011;62266;53.348;-1.496;2022-09-16T10:58:14;0.70;;;0.13;;
73919;SDS011;62266;53.348;-1.496;2022-09-16T11:06:04;1.15;;;0.17;;
73919;SDS011;62266;53.348;-1.496;2022-09-16T11:22:43;0.43;;;0.30;;
73919;SDS011;62266;53.348;-1.496;2022-09-16T11:31:33;0.90;;;0.10;;
73919;SDS011;62266;53.348;-1.496;2022-09-16T11:42:40;0.75;;;0.30;;
73919;SDS011;62266;53.348;-1.496;2022-09-16T11:48:22;0.60;;;0.10;;
73919;SDS011;62266;53.348;-1.496;2022-09-16T11:53:57;0.50;;;0.00;;
73919;SDS011;62266;53.348;-1.496;2022-09-16T11:56:49;0.77;;;0.15;;
73919;SDS011;62266;53.348;-1.496;2022-09-16T11:59:33;0.65;;;0.10;;
73919;SDS011;62266;53.348;-1.496;2022-09-16T12:02:02;0.93;;;0.00;;
73919;SDS011;62266;53.348;-1.496;2022-09-16T12:05:02;0.50;;;0.10;;
73919;SDS011;62266;53.348;-1.496;2022-09-16T12:07:36;0.13;;;0.00;;
73919;SDS011;62266;53.348;-1.496;2022-09-16T12:10:11;0.40;;;0.17;;
73919;SDS011;62266;53.348;-1.496;2022-09-16T12:12:45;0.55;;;0.20;;
73919;SDS011;62266;53.348;-1.496;2022-09-16T12:15:18;2.77;;;0.20;;
73919;SDS011;62266;53.348;-1.496;2022-09-16T12:17:57;1.85;;;0.20;;
73919;SDS011;62266;53.348;-1.496;2022-09-16T12:20:50;1.27;;;0.15;;
73919;SDS011;62266;53.348;-1.496;2022-09-16T12:23:26;0.50;;;0.10;;
73919;SDS011;62266;53.348;-1.496;2022-09-16T12:34:22;1.27;;;0.10;;
73919;SDS011;62266;53.348;-1.496;2022-09-16T12:36:58;0.70;;;0.30;;
73919;SDS011;62266;53.348;-1.496;2022-09-16T12:39:28;1.42;;;0.20;;
73919;SDS011;62266;53.348;-1.496;2022-09-16T12:45:03;1.00;;;0.20;;
73919;SDS011;62266;53.348;-1.496;2022-09-16T13:02:26;1.17;;;0.10;;
73919;SDS011;62266;53.348;-1.496;2022-09-16T13:05:27;0.43;;;0.10;;
73919;SDS011;62266;53.348;-1.496;2022-09-16T13:07:57;0.75;;;0.20;;
73919;SDS011;62266;53.348;-1.496;2022-09-16T13:13:01;0.63;;;0.15;;
73919;SDS011;62266;53.348;-1.496;2022-09-16T13:15:32;0.98;;;0.30;;
73919;SDS011;62266;53.348;-1.496;2022-09-16T13:20:41;0.63;;;0.15;;
73919;SDS011;62266;53.348;-1.496;2022-09-16T13:23:17;0.75;;;0.20;;
73919;SDS011;62266;53.348;-1.496;2022-09-16T13:25:58;0.55;;;0.13;;
73919;SDS011;62266;53.348;-1.496;2022-09-16T13:28:45;1.75;;;0.40;;
73919;SDS011;62266;53.348;-1.496;2022-09-16T13:33:40;1.58;;;0.10;;
73919;SDS011;62266;53.348;-1.496;2022-09-16T13:38:47;2.40;;;0.20;;
73919;SDS011;62266;53.348;-1.496;2022-09-16T13:49:33;1.47;;;0.03;;
73919;SDS011;62266;53.348;-1.496;2022-09-16T13:52:18;1.40;;;0.20;;
73919;SDS011;62266;53.348;-1.496;2022-09-16T13:54:50;0.15;;;0.03;;
73919;SDS011;62266;53.348;-1.496;2022-09-16T14:00:20;0.52;;;0.10;;
73919;SDS011;62266;53.348;-1.496;2022-09-16T14:13:41;0.60;;;0.10;;
73919;SDS011;62266;53.348;-1.496;2022-09-16T14:16:19;0.85;;;0.10;;
73919;SDS011;62266;53.348;-1.496;2022-09-16T14:21:40;0.83;;;0.13;;
73919;SDS011;62266;53.348;-1.496;2022-09-16T14:26:37;1.53;;;0.10;;
73919;SDS011;62266;53.348;-1.496;2022-09-16T14:29:03;1.77;;;0.10;;
73919;SDS011;62266;53.348;-1.496;2022-09-16T14:31:30;0.82;;;0.10;;
73919;SDS011;62266;53.348;-1.496;2022-09-16T14:33:57;0.53;;;0.10;;
73919;SDS011;62266;53.348;-1.496;2022-09-16T14:36:29;0.68;;;0.10;;
73919;SDS011;62266;53.348;-1.496;2022-09-16T14:41:39;2.88;;;0.50;;
73919;SDS011;62266;53.348;-1.496;2022-09-16T14:44:08;1.00;;;0.30;;
73919;SDS011;62266;53.348;-1.496;2022-09-16T14:46:43;0.87;;;0.10;;
73919;SDS011;62266;53.348;-1.496;2022-09-16T14:49:12;0.50;;;0.10;;
73919;SDS011;62266;53.348;-1.496;2022-09-16T14:51:41;0.40;;;0.10;;
73919;SDS011;62266;53.348;-1.496;2022-09-16T14:54:14;1.08;;;0.08;;
73919;SDS011;62266;53.348;-1.496;2022-09-16T14:56:57;0.88;;;0.30;;
73919;SDS011;62266;53.348;-1.496;2022-09-16T14:59:29;2.40;;;0.30;;
73919;SDS011;62266;53.348;-1.496;2022-09-16T15:02:22;1.35;;;0.32;;
73919;SDS011;62266;53.348;-1.496;2022-09-16T15:07:33;1.45;;;0.10;;
73919;SDS011;62266;53.348;-1.496;2022-09-16T15:10:05;2.15;;;0.20;;
73919;SDS011;62266;53.348;-1.496;2022-09-16T15:15:22;1.10;;;0.20;;
73919;SDS011;62266;53.348;-1.496;2022-09-16T15:17:53;0.63;;;0.10;;
73919;SDS011;62266;53.348;-1.496;2022-09-16T15:20:21;1.30;;;0.10;;
73919;SDS011;62266;53.348;-1.496;2022-09-16T15:22:49;1.65;;;0.28;;
73919;SDS011;62266;53.348;-1.496;2022-09-16T15:25:21;1.67;;;0.20;;
73919;SDS011;62266;53.348;-1.496;2022-09-16T15:28:02;2.20;;;0.20;;
73919;SDS011;62266;53.348;-1.496;2022-09-16T15:30:47;1.55;;;0.20;;
73919;SDS011;62266;53.348;-1.496;2022-09-16T15:33:42;1.45;;;0.32;;
73919;SDS011;62266;53.348;-1.496;2022-09-16T15:36:29;0.30;;;0.10;;
73919;SDS011;62266;53.348;-1.496;2022-09-16T15:38:57;0.57;;;0.13;;
73919;SDS011;62266;53.348;-1.496;2022-09-16T15:41:23;1.50;;;0.45;;
73919;SDS011;62266;53.348;-1.496;2022-09-16T15:43:49;0.80;;;0.30;;
73919;SDS011;62266;53.348;-1.496;2022-09-16T15:46:16;0.68;;;0.13;;
73919;SDS011;62266;53.348;-1.496;2022-09-16T15:48:49;0.83;;;0.10;;
73919;SDS011;62266;53.348;-1.496;2022-09-16T15:51:23;2.83;;;0.63;;
73919;SDS011;62266;53.348;-1.496;2022-09-16T15:53:57;2.22;;;0.30;;
73919;SDS011;62266;53.348;-1.496;2022-09-16T15:56:31;2.30;;;0.30;;
73919;SDS011;62266;53.348;-1.496;2022-09-16T15:59:01;1.08;;;0.20;;
73919;SDS011;62266;53.348;-1.496;2022-09-16T16:01:34;0.77;;;0.10;;
73919;SDS011;62266;53.348;-1.496;2022-09-16T16:04:08;0.45;;;0.10;;
73919;SDS011;62266;53.348;-1.496;2022-09-16T16:06:42;1.77;;;0.25;;
73919;SDS011;62266;53.348;-1.496;2022-09-16T16:09:27;2.47;;;0.20;;
73919;SDS011;62266;53.348;-1.496;2022-09-16T16:14:20;2.13;;;0.23;;
73919;SDS011;62266;53.348;-1.496;2022-09-16T16:16:47;0.85;;;0.10;;
73919;SDS011;62266;53.348;-1.496;2022-09-16T16:19:12;1.08;;;0.40;;
73919;SDS011;62266;53.348;-1.496;2022-09-16T16:21:39;1.00;;;0.10;;
73919;SDS011;62266;53.348;-1.496;2022-09-16T16:24:11;0.83;;;0.10;;
73919;SDS011;62266;53.348;-1.496;2022-09-16T16:26:38;1.58;;;0.50;;
73919;SDS011;62266;53.348;-1.496;2022-09-16T16:29:04;1.15;;;0.20;;
73919;SDS011;62266;53.348;-1.496;2022-09-16T16:31:30;0.75;;;0.30;;
73919;SDS011;62266;53.348;-1.496;2022-09-16T16:33:57;2.00;;;1.10;;
73919;SDS011;62266;53.348;-1.496;2022-09-16T16:36:23;2.47;;;0.80;;
73919;SDS011;62266;53.348;-1.496;2022-09-16T16:38:49;0.70;;;0.25;;
73919;SDS011;62266;53.348;-1.496;2022-09-16T16:41:18;2.40;;;0.20;;
73919;SDS011;62266;53.348;-1.496;2022-09-16T16:43:44;1.05;;;0.20;;
73919;SDS011;62266;53.348;-1.496;2022-09-16T16:46:10;0.37;;;0.17;;
73919;SDS011;62266;53.348;-1.496;2022-09-16T16:48:36;0.40;;;0.10;;
73919;SDS011;62266;53.348;-1.496;2022-09-16T16:51:10;0.80;;;0.10;;
73919;SDS011;62266;53.348;-1.496;2022-09-16T16:53:36;1.52;;;0.32;;
73919;SDS011;62266;53.348;-1.496;2022-09-16T16:56:06;0.93;;;0.20;;
73919;SDS011;62266;53.348;-1.496;2022-09-16T16:58:38;1.98;;;0.25;;
73919;SDS011;62266;53.348;-1.496;2022-09-16T17:01:14;3.17;;;0.60;;
73919;SDS011;62266;53.348;-1.496;2022-09-16T17:03:41;2.70;;;0.40;;
73919;SDS011;62266;53.348;-1.496;2022-09-16T17:06:09;1.90;;;0.43;;
73919;SDS011;62266;53.348;-1.496;2022-09-16T17:08:35;1.13;;;0.10;;
73919;SDS011;62266;53.348;-1.496;2022-09-16T17:11:11;0.50;;;0.10;;
73919;SDS011;62266;53.348;-1.496;2022-09-16T17:13:42;4.13;;;0.32;;
73919;SDS011;62266;53.348;-1.496;2022-09-16T17:16:11;1.40;;;0.30;;
73919;SDS011;62266;53.348;-1.496;2022-09-16T17:18:38;0.93;;;0.17;;
73919;SDS011;62266;53.348;-1.496;2022-09-16T17:21:15;1.03;;;0.20;;
73919;SDS011;62266;53.348;-1.496;2022-09-16T17:23:51;1.63;;;0.30;;
73919;SDS011;62266;53.348;-1.496;2022-09-16T17:26:17;0.98;;;0.30;;
73919;SDS011;62266;53.348;-1.496;2022-09-16T17:28:44;1.05;;;0.32;;
73919;SDS011;62266;53.348;-1.496;2022-09-16T17:31:15;2.38;;;0.50;;
73919;SDS011;62266;53.348;-1.496;2022-09-16T17:33:48;1.97;;;0.20;;
73919;SDS011;62266;53.348;-1.496;2022-09-16T17:36:16;1.42;;;0.30;;
73919;SDS011;62266;53.348;-1.496;2022-09-16T17:38:45;2.70;;;0.57;;
73919;SDS011;62266;53.348;-1.496;2022-09-16T17:41:12;1.42;;;0.47;;
73919;SDS011;62266;53.348;-1.496;2022-09-16T17:43:39;1.52;;;0.43;;
73919;SDS011;62266;53.348;-1.496;2022-09-16T17:46:07;1.43;;;0.40;;
73919;SDS011;62266;53.348;-1.496;2022-09-16T17:48:35;1.15;;;0.30;;
73919;SDS011;62266;53.348;-1.496;2022-09-16T17:51:02;1.00;;;0.40;;
73919;SDS011;62266;53.348;-1.496;2022-09-16T17:53:27;1.50;;;0.60;;
73919;SDS011;62266;53.348;-1.496;2022-09-16T17:56:00;1.83;;;0.30;;